createdAt,value
2023-04-15T00:01:55.294Z,44.67
2023-04-15T00:04:23.305Z,44.20
2023-04-15T00:06:52.928Z,47.63
2023-04-15T00:09:20.997Z,48.80
2023-04-15T00:11:51.529Z,49.30
2023-04-15T00:14:19.554Z,48.50
2023-04-15T00:16:47.301Z,48.40
2023-04-15T00:19:15.296Z,50.73
2023-04-15T00:21:42.947Z,51.03
2023-04-15T00:24:11.260Z,49.47
2023-04-15T00:26:38.918Z,50.20
2023-04-15T00:29:08.474Z,46.90
2023-04-15T00:31:37.587Z,47.80
2023-04-15T00:34:05.816Z,47.50
2023-04-15T00:36:35.046Z,50.70
2023-04-15T00:39:03.693Z,47.50
2023-04-15T00:41:31.662Z,46.70
2023-04-15T00:44:00.317Z,49.00
2023-04-15T00:46:32.234Z,47.10
2023-04-15T00:49:00.068Z,47.47
2023-04-15T00:51:29.019Z,51.33
2023-04-15T00:53:56.966Z,49.10
2023-04-15T00:56:25.330Z,49.00
2023-04-15T00:58:53.060Z,50.00
2023-04-15T01:01:22.549Z,49.97
2023-04-15T01:03:52.330Z,51.87
2023-04-15T01:06:20.595Z,50.97
2023-04-15T01:08:48.447Z,51.57
2023-04-15T01:11:16.946Z,48.33
2023-04-15T01:13:44.870Z,49.60
2023-04-15T01:16:13.283Z,49.27
2023-04-15T01:18:41.520Z,49.70
2023-04-15T01:21:11.012Z,52.17
2023-04-15T01:23:39.633Z,50.47
2023-04-15T01:26:09.946Z,53.20
2023-04-15T01:28:38.230Z,50.70
2023-04-15T01:31:07.416Z,52.90
2023-04-15T01:33:38.149Z,51.13
2023-04-15T01:36:24.545Z,51.77
2023-04-15T01:38:54.458Z,50.93
2023-04-15T01:41:26.078Z,48.10
2023-04-15T01:43:53.960Z,52.10
2023-04-15T01:46:22.054Z,51.40
2023-04-15T01:48:50.046Z,51.70
2023-04-15T01:51:17.946Z,52.10
2023-04-15T01:53:45.912Z,49.83
2023-04-15T01:56:15.829Z,51.67
2023-04-15T01:58:46.356Z,51.87
2023-04-15T02:01:15.114Z,51.20
2023-04-15T02:03:43.449Z,53.03
2023-04-15T02:06:11.544Z,51.63
2023-04-15T02:08:39.562Z,51.67
2023-04-15T02:11:08.806Z,51.80
2023-04-15T02:13:37.044Z,52.77
2023-04-15T02:16:16.775Z,52.13
2023-04-15T02:18:45.644Z,53.60
2023-04-15T02:21:13.568Z,53.53
2023-04-15T02:23:41.518Z,53.37
2023-04-15T02:26:09.193Z,51.67
2023-04-15T02:28:37.109Z,49.20
2023-04-15T02:31:08.227Z,58.57
2023-04-15T02:33:37.028Z,52.20
2023-04-15T02:36:04.998Z,52.30
2023-04-15T02:38:33.052Z,50.57
2023-04-15T02:41:00.732Z,50.57
2023-04-15T02:43:29.439Z,51.80
2023-04-15T02:45:57.606Z,52.87
2023-04-15T02:48:26.962Z,51.77
2023-04-15T02:51:11.741Z,54.03
2023-04-15T02:53:39.892Z,52.10
2023-04-15T02:56:08.339Z,49.80
2023-04-15T02:58:36.869Z,50.40
2023-04-15T03:01:04.645Z,50.13
2023-04-15T03:03:34.792Z,49.10
2023-04-15T03:06:02.776Z,50.10
2023-04-15T03:08:30.894Z,51.10
2023-04-15T03:11:00.718Z,51.93
2023-04-15T03:13:28.852Z,51.13
2023-04-15T03:15:58.452Z,48.87
2023-04-15T03:18:29.476Z,50.20
2023-04-15T03:21:02.618Z,49.40
2023-04-15T03:23:32.443Z,48.07
2023-04-15T03:26:02.710Z,46.43
2023-04-15T03:28:32.645Z,48.03
2023-04-15T03:31:01.137Z,46.37
2023-04-15T03:33:29.188Z,46.77
2023-04-15T03:35:57.592Z,47.20
2023-04-15T03:38:27.035Z,47.30
2023-04-15T03:40:54.952Z,46.23
2023-04-15T03:43:22.793Z,44.93
2023-04-15T03:45:50.693Z,47.83
2023-04-15T03:48:18.555Z,45.63
2023-04-15T03:50:47.396Z,47.77
2023-04-15T03:53:15.953Z,45.60
2023-04-15T03:55:45.052Z,46.10
2023-04-15T03:58:13.489Z,46.80
2023-04-15T04:00:41.435Z,45.73
2023-04-15T04:03:09.530Z,45.37
2023-04-15T04:05:39.185Z,44.50
2023-04-15T04:08:07.297Z,45.90
2023-04-15T04:10:35.170Z,44.47
2023-04-15T04:13:04.277Z,44.93
2023-04-15T04:15:32.093Z,44.30
2023-04-15T04:17:59.904Z,44.00
2023-04-15T04:20:28.168Z,44.27
2023-04-15T04:22:55.987Z,43.83
2023-04-15T04:25:24.499Z,41.50
2023-04-15T04:27:52.452Z,42.83
2023-04-15T04:30:21.517Z,42.87
2023-04-15T04:32:50.705Z,40.40
2023-04-15T04:35:18.915Z,43.93
2023-04-15T04:37:46.567Z,40.80
2023-04-15T04:40:14.779Z,40.13
2023-04-15T04:42:43.042Z,40.10
2023-04-15T04:45:11.555Z,38.93
2023-04-15T04:47:40.676Z,39.60
2023-04-15T04:50:09.214Z,40.10
2023-04-15T04:52:36.898Z,38.77
2023-04-15T04:55:04.857Z,36.27
2023-04-15T04:57:32.785Z,35.50
2023-04-15T05:00:00.591Z,34.90
2023-04-15T05:02:28.367Z,35.60
2023-04-15T05:04:58.109Z,35.57
2023-04-15T05:07:25.884Z,36.20
2023-04-15T05:09:53.565Z,34.03
2023-04-15T05:12:21.648Z,34.17
2023-04-15T05:14:49.329Z,33.63
2023-04-15T05:17:17.365Z,33.13
2023-04-15T05:19:45.352Z,34.20
2023-04-15T05:22:15.182Z,34.47
2023-04-15T05:24:43.158Z,31.70
2023-04-15T05:27:11.905Z,32.07
2023-04-15T05:29:39.595Z,32.30
2023-04-15T05:32:07.686Z,31.10
2023-04-15T05:34:35.962Z,32.63
2023-04-15T05:37:04.511Z,31.57
2023-04-15T05:39:33.926Z,30.77
2023-04-15T05:42:02.494Z,30.87
2023-04-15T05:44:30.416Z,30.60
2023-04-15T05:46:58.364Z,30.93
2023-04-15T05:49:26.705Z,30.60
2023-04-15T05:51:54.340Z,30.60
2023-04-15T05:54:22.565Z,29.47
2023-04-15T05:56:51.969Z,29.97
2023-04-15T05:59:19.728Z,30.70
2023-04-15T06:01:47.501Z,27.53
2023-04-15T06:04:15.685Z,28.30
2023-04-15T06:06:43.643Z,29.17
2023-04-15T06:09:11.643Z,29.50
2023-04-15T06:11:39.649Z,28.47
2023-04-15T06:14:08.791Z,27.30
2023-04-15T06:16:37.519Z,26.10
2023-04-15T06:19:06.549Z,26.00
2023-04-15T06:21:34.344Z,26.30
2023-04-15T06:24:03.285Z,26.23
2023-04-15T06:26:31.974Z,24.30
2023-04-15T06:28:59.883Z,26.63
2023-04-15T06:31:29.113Z,25.43
2023-04-15T06:33:57.493Z,25.40
2023-04-15T06:36:25.176Z,24.23
2023-04-15T06:38:53.105Z,24.60
2023-04-15T06:41:21.098Z,24.40
2023-04-15T06:43:48.843Z,25.70
2023-04-15T06:46:16.843Z,24.47
2023-04-15T06:48:46.193Z,25.20
2023-04-15T06:51:13.913Z,23.70
2023-04-15T06:53:43.768Z,22.80
2023-04-15T06:56:11.842Z,24.67
2023-04-15T06:58:39.515Z,23.30
2023-04-15T07:01:07.410Z,23.50
2023-04-15T07:03:35.316Z,21.43
2023-04-15T07:06:06.418Z,20.40
2023-04-15T07:08:34.582Z,20.40
2023-04-15T07:11:02.456Z,20.87
2023-04-15T07:13:32.431Z,19.80
2023-04-15T07:16:01.291Z,19.93
2023-04-15T07:18:28.971Z,19.87
2023-04-15T07:20:56.689Z,20.27
2023-04-15T07:23:26.026Z,19.97
2023-04-15T07:25:53.836Z,18.47
2023-04-15T07:28:21.641Z,17.97
2023-04-15T07:30:49.904Z,18.10
2023-04-15T07:33:17.593Z,17.60
2023-04-15T07:35:46.717Z,19.23
2023-04-15T07:38:14.667Z,17.33
2023-04-15T07:40:43.939Z,18.10
2023-04-15T07:43:11.970Z,17.73
2023-04-15T07:45:39.693Z,17.33
2023-04-15T07:48:08.285Z,17.90
2023-04-15T07:50:35.972Z,17.63
2023-04-15T07:53:03.896Z,16.97
2023-04-15T07:55:31.949Z,17.57
2023-04-15T07:58:01.313Z,16.30
2023-04-15T08:00:29.469Z,17.83
2023-04-15T08:02:59.503Z,18.10
2023-04-15T08:05:27.540Z,19.40
2023-04-15T08:07:55.757Z,16.80
2023-04-15T08:10:23.646Z,36.40
2023-04-15T08:12:54.238Z,29.63
2023-04-15T08:15:24.426Z,22.87
2023-04-15T08:17:52.267Z,19.40
2023-04-15T08:20:20.686Z,22.33
2023-04-15T08:22:52.150Z,25.10
2023-04-15T08:25:20.231Z,29.93
2023-04-15T08:27:48.572Z,38.37
2023-04-15T08:30:17.136Z,19.00
2023-04-15T08:32:47.720Z,19.10
2023-04-15T08:35:15.858Z,18.33
2023-04-15T08:37:44.180Z,18.90
2023-04-15T08:40:12.741Z,18.90
2023-04-15T08:42:43.687Z,18.70
2023-04-15T08:45:13.441Z,18.63
2023-04-15T08:47:41.810Z,19.90
2023-04-15T08:50:11.747Z,21.43
2023-04-15T08:52:40.122Z,20.33
2023-04-15T08:55:09.608Z,21.97
2023-04-15T08:57:38.063Z,21.13
2023-04-15T09:00:06.628Z,21.87
2023-04-15T09:02:34.778Z,23.33
2023-04-15T09:05:04.939Z,23.00
2023-04-15T09:07:36.496Z,22.93
2023-04-15T09:10:04.963Z,22.70
2023-04-15T09:12:35.024Z,23.60
2023-04-15T09:15:03.194Z,24.30
2023-04-15T09:17:33.740Z,25.03
2023-04-15T09:20:12.994Z,24.27
2023-04-15T09:22:42.278Z,25.17
2023-04-15T09:25:25.647Z,23.40
2023-04-15T09:27:55.358Z,20.90
2023-04-15T09:30:23.371Z,22.77
2023-04-15T09:32:53.025Z,23.30
2023-04-15T09:35:21.606Z,24.77
2023-04-15T09:37:50.913Z,22.47
2023-04-15T09:40:32.417Z,24.03
2023-04-15T09:43:01.904Z,23.70
2023-04-15T09:45:30.382Z,23.17
2023-04-15T09:48:00.770Z,23.17
2023-04-15T09:50:29.314Z,22.37
2023-04-15T09:52:59.595Z,22.83
2023-04-15T09:55:27.776Z,22.43
2023-04-15T09:57:55.472Z,23.90
2023-04-15T10:00:23.511Z,22.27
2023-04-15T10:02:51.924Z,24.00
2023-04-15T10:05:19.673Z,26.57
2023-04-15T10:07:48.254Z,23.30
2023-04-15T10:10:18.343Z,23.80
2023-04-15T10:12:47.977Z,24.00
2023-04-15T10:15:16.580Z,25.10
2023-04-15T10:17:45.275Z,24.70
2023-04-15T10:20:14.488Z,25.53
2023-04-15T10:22:43.181Z,25.70
2023-04-15T10:25:11.804Z,25.37
2023-04-15T10:27:42.443Z,23.93
2023-04-15T10:30:11.685Z,24.90
2023-04-15T10:32:39.882Z,25.67
2023-04-15T10:35:08.774Z,25.70
2023-04-15T10:37:37.638Z,25.83
2023-04-15T10:40:24.329Z,25.77
2023-04-15T10:42:54.421Z,23.93
2023-04-15T10:45:22.401Z,24.33
2023-04-15T10:47:53.152Z,22.33
2023-04-15T10:50:21.417Z,23.23
2023-04-15T10:52:51.639Z,23.17
2023-04-15T10:55:21.036Z,22.77
2023-04-15T10:57:52.252Z,22.37
2023-04-15T11:00:22.660Z,22.07
2023-04-15T11:02:53.813Z,23.57
2023-04-15T11:05:22.244Z,23.90
2023-04-15T11:07:51.829Z,22.50
2023-04-15T11:11:01.947Z,24.00
2023-04-15T11:13:31.676Z,24.90
2023-04-15T11:16:04.168Z,24.63
2023-04-15T11:18:32.927Z,25.70
2023-04-15T11:21:02.147Z,25.03
2023-04-15T11:23:32.511Z,26.73
2023-04-15T11:26:00.985Z,24.77
2023-04-15T11:28:29.522Z,25.67
2023-04-15T11:30:57.923Z,24.67
2023-04-15T11:33:27.480Z,22.93
2023-04-15T11:36:00.211Z,24.60
2023-04-15T11:38:28.029Z,23.27
2023-04-15T11:40:55.729Z,22.70
2023-04-15T11:43:24.325Z,26.10
2023-04-15T11:45:53.615Z,25.80
2023-04-15T11:48:23.252Z,24.60
2023-04-15T11:50:56.085Z,23.73
2023-04-15T11:53:24.488Z,23.80
2023-04-15T11:55:52.850Z,25.17
2023-04-15T11:58:22.252Z,24.97
2023-04-15T12:00:50.984Z,24.00
2023-04-15T12:03:20.187Z,24.17
2023-04-15T12:06:07.887Z,22.60
2023-04-15T12:08:51.194Z,21.30
2023-04-15T12:11:19.254Z,22.60
2023-04-15T12:13:47.204Z,23.87
2023-04-15T12:16:17.850Z,23.33
2023-04-15T12:18:49.572Z,24.23
2023-04-15T12:21:20.293Z,23.50
2023-04-15T12:23:54.297Z,23.57
2023-04-15T12:26:28.209Z,26.27
2023-04-15T12:28:56.870Z,23.50
2023-04-15T12:31:26.734Z,24.67
2023-04-15T12:33:56.349Z,25.00
2023-04-15T12:36:24.359Z,27.90
2023-04-15T12:38:54.005Z,26.07
2023-04-15T12:41:25.057Z,23.50
2023-04-15T12:43:58.592Z,23.93
2023-04-15T12:46:28.937Z,22.33
2023-04-15T12:48:57.529Z,23.93
2023-04-15T12:51:30.375Z,25.30
2023-04-15T12:53:59.937Z,23.93
2023-04-15T12:56:27.872Z,27.47
2023-04-15T12:58:56.049Z,25.60
2023-04-15T13:01:23.831Z,22.73
2023-04-15T13:03:52.000Z,21.87
2023-04-15T13:06:20.049Z,26.67
2023-04-15T13:08:57.844Z,25.73
2023-04-15T13:11:27.910Z,27.77
2023-04-15T13:13:57.639Z,21.17
2023-04-15T13:16:25.612Z,26.67
2023-04-15T13:18:53.704Z,23.80
2023-04-15T13:21:21.783Z,28.40
2023-04-15T13:23:49.786Z,24.97
2023-04-15T13:26:19.333Z,21.87
2023-04-15T13:28:48.450Z,20.00
2023-04-15T13:31:16.564Z,21.10
2023-04-15T13:33:44.785Z,21.03
2023-04-15T13:36:13.064Z,23.80
2023-04-15T13:38:40.834Z,21.17
2023-04-15T13:41:09.284Z,26.13
2023-04-15T13:43:37.523Z,46.60
2023-04-15T13:46:06.694Z,85.07
2023-04-15T13:48:57.665Z,56.40
2023-04-15T13:51:27.038Z,38.43
2023-04-15T13:53:55.343Z,35.57
2023-04-15T13:56:23.368Z,21.97
2023-04-15T13:58:55.109Z,18.40
2023-04-15T14:01:24.508Z,15.40
2023-04-15T14:03:52.751Z,16.10
2023-04-15T14:06:20.740Z,18.40
2023-04-15T14:08:48.425Z,20.00
2023-04-15T14:11:16.812Z,16.70
2023-04-15T14:13:44.604Z,17.07
2023-04-15T14:16:12.397Z,16.40
2023-04-15T14:18:41.978Z,18.93
2023-04-15T14:21:10.394Z,18.53
2023-04-15T14:23:39.537Z,19.37
2023-04-15T14:26:07.677Z,19.80
2023-04-15T14:28:35.416Z,19.77
2023-04-15T14:31:03.233Z,19.70
2023-04-15T14:33:31.478Z,20.13
2023-04-15T14:36:00.892Z,19.87
2023-04-15T14:38:29.419Z,18.80
2023-04-15T14:40:57.235Z,20.80
2023-04-15T14:43:25.124Z,18.03
2023-04-15T14:45:53.789Z,18.30
2023-04-15T14:48:22.092Z,17.93
2023-04-15T14:50:50.325Z,16.53
2023-04-15T14:53:19.622Z,18.90
2023-04-15T14:55:48.188Z,21.70
2023-04-15T14:58:16.522Z,17.67
2023-04-15T15:00:44.937Z,18.73
2023-04-15T15:03:14.828Z,18.87
2023-04-15T15:05:43.211Z,20.80
2023-04-15T15:08:11.368Z,20.90
2023-04-15T15:10:49.080Z,21.10
2023-04-15T15:13:18.757Z,19.67
2023-04-15T15:15:46.534Z,22.47
2023-04-15T15:18:14.230Z,21.57
2023-04-15T15:20:41.923Z,20.50
2023-04-15T15:23:09.690Z,20.00
2023-04-15T15:25:37.401Z,18.87
2023-04-15T15:28:07.685Z,21.70
2023-04-15T15:30:35.961Z,19.53
2023-04-15T15:33:03.708Z,24.20
2023-04-15T15:35:31.673Z,19.20
2023-04-15T15:38:00.848Z,23.13
2023-04-15T15:40:28.999Z,20.83
2023-04-15T15:42:56.658Z,21.20
2023-04-15T15:45:26.252Z,24.43
2023-04-15T15:47:54.075Z,29.27
2023-04-15T15:50:21.987Z,22.90
2023-04-15T15:52:49.794Z,19.80
2023-04-15T15:55:17.596Z,18.57
2023-04-15T15:57:45.541Z,19.70
2023-04-15T16:00:13.812Z,27.90
2023-04-15T16:05:14.554Z,19.80
2023-04-15T16:07:42.534Z,21.10
2023-04-15T16:10:11.039Z,39.67
2023-04-15T16:12:39.103Z,43.77
2023-04-15T16:15:07.838Z,30.80
2023-04-15T16:17:35.662Z,25.53
2023-04-15T16:20:06.047Z,22.37
2023-04-15T16:22:34.489Z,30.20
2023-04-15T16:25:03.761Z,21.57
2023-04-15T16:27:33.800Z,20.27
2023-04-15T16:30:02.790Z,20.90
2023-04-15T16:32:30.635Z,18.30
2023-04-15T16:34:58.636Z,19.07
2023-04-15T16:37:27.762Z,17.80
2023-04-15T16:39:56.852Z,19.20
2023-04-15T16:42:25.094Z,17.83
2023-04-15T16:44:53.145Z,20.40
2023-04-15T16:47:21.294Z,18.07
2023-04-15T16:49:49.554Z,18.07
2023-04-15T16:52:18.203Z,17.77
2023-04-15T16:54:47.305Z,18.57
2023-04-15T16:57:15.118Z,15.90
2023-04-15T16:59:42.947Z,24.30
2023-04-15T17:02:11.482Z,23.90
2023-04-15T17:04:39.750Z,16.33
2023-04-15T17:07:08.763Z,16.60
2023-04-15T17:09:36.670Z,17.97
2023-04-15T17:12:06.314Z,18.07
2023-04-15T17:14:35.087Z,21.80
2023-04-15T17:17:03.011Z,19.43
2023-04-15T17:19:31.700Z,18.30
2023-04-15T17:22:06.534Z,21.60
2023-04-15T17:24:36.227Z,26.07
2023-04-15T17:27:09.737Z,20.77
2023-04-15T17:29:39.093Z,18.83
2023-04-15T17:32:20.308Z,23.00
2023-04-15T17:35:09.037Z,17.23
2023-04-15T17:37:58.123Z,26.70
2023-04-15T17:40:46.196Z,20.30
2023-04-15T17:43:35.384Z,22.17
2023-04-15T17:46:23.664Z,22.20
2023-04-15T17:49:11.430Z,19.50
2023-04-15T17:51:59.363Z,22.20
2023-04-15T17:54:47.418Z,27.80
2023-04-15T17:57:36.483Z,18.97
2023-04-15T18:00:25.952Z,19.67
2023-04-15T18:03:15.068Z,28.67
2023-04-15T18:06:03.417Z,21.70
2023-04-15T18:08:52.447Z,22.57
2023-04-15T18:11:40.883Z,59.13
2023-04-15T18:14:34.689Z,29.10
2023-04-15T18:17:27.954Z,38.40
2023-04-15T18:20:15.612Z,28.20
2023-04-15T18:22:46.196Z,24.30
2023-04-15T18:25:13.891Z,22.53
2023-04-15T18:27:41.666Z,22.30
2023-04-15T18:30:10.550Z,24.53
2023-04-15T18:32:40.495Z,27.30
2023-04-15T18:35:08.973Z,27.83
2023-04-15T18:37:36.750Z,28.73
2023-04-15T18:40:05.568Z,25.70
2023-04-15T18:42:33.629Z,23.77
2023-04-15T18:45:01.511Z,44.70
2023-04-15T18:47:29.361Z,46.97
2023-04-15T18:49:59.473Z,35.43
2023-04-15T18:52:27.196Z,26.73
2023-04-15T18:54:55.226Z,31.90
2023-04-15T18:57:46.701Z,28.33
2023-04-15T19:00:17.157Z,23.13
2023-04-15T19:02:45.083Z,22.07
2023-04-15T19:05:14.491Z,19.20
2023-04-15T19:07:44.172Z,21.10
2023-04-15T19:10:12.013Z,23.00
2023-04-15T19:12:40.364Z,21.67
2023-04-15T19:15:09.896Z,20.03
2023-04-15T19:17:37.921Z,19.80
2023-04-15T19:20:06.393Z,31.53
2023-04-15T19:22:35.705Z,22.30
2023-04-15T19:25:03.794Z,22.33
2023-04-15T19:27:32.020Z,19.93
2023-04-15T19:29:59.740Z,20.27
2023-04-15T19:32:28.630Z,20.10
2023-04-15T19:34:56.693Z,24.80
2023-04-15T19:37:24.966Z,26.53
2023-04-15T19:39:55.101Z,24.30
2023-04-15T19:42:23.161Z,26.10
2023-04-15T19:44:51.162Z,22.40
2023-04-15T19:47:19.545Z,26.07
2023-04-15T19:49:47.534Z,25.83
2023-04-15T19:52:15.389Z,26.30
2023-04-15T19:54:43.178Z,24.73
2023-04-15T19:57:12.617Z,24.83
2023-04-15T19:59:42.329Z,26.50
2023-04-15T20:02:10.203Z,26.83
2023-04-15T20:04:38.332Z,27.10
2023-04-15T20:07:06.185Z,31.03
2023-04-15T20:09:34.230Z,29.33
2023-04-15T20:12:46.325Z,27.80
2023-04-15T20:14:52.584Z,26.60
2023-04-15T20:17:20.332Z,49.50
2023-04-15T20:19:48.567Z,31.40
2023-04-15T20:22:16.504Z,31.83
2023-04-15T20:24:45.058Z,30.30
2023-04-15T20:27:12.962Z,27.20
2023-04-15T20:29:41.508Z,27.80
2023-04-15T20:32:11.489Z,26.90
2023-04-15T20:34:40.031Z,27.50
2023-04-15T20:37:08.239Z,33.93
2023-04-15T20:39:35.951Z,30.13
2023-04-15T20:42:03.775Z,29.70
2023-04-15T20:44:32.350Z,31.73
2023-04-15T20:47:00.797Z,43.33
2023-04-15T20:49:33.667Z,39.20
2023-04-15T20:52:01.888Z,35.80
2023-04-15T20:54:30.058Z,34.70
2023-04-15T20:56:58.453Z,33.37
2023-04-15T20:59:26.662Z,32.37
2023-04-15T21:01:56.768Z,31.20
2023-04-15T21:04:25.212Z,31.20
2023-04-15T21:06:54.248Z,31.07
2023-04-15T21:09:22.420Z,31.57
2023-04-15T21:14:22.615Z,34.00
2023-04-15T21:16:50.467Z,32.10
2023-04-15T21:19:18.355Z,31.73
2023-04-15T21:21:46.197Z,34.50
2023-04-15T21:24:15.677Z,32.43
2023-04-15T21:26:43.485Z,37.30
2023-04-15T21:29:12.087Z,32.90
2023-04-15T21:31:40.319Z,35.00
2023-04-15T21:34:08.157Z,41.77
2023-04-15T21:36:39.640Z,43.57
2023-04-15T21:39:07.709Z,38.70
2023-04-15T21:41:37.761Z,41.93
2023-04-15T21:44:05.850Z,37.40
2023-04-15T21:46:35.614Z,37.57
2023-04-15T21:49:06.287Z,48.63
2023-04-15T21:51:34.532Z,47.97
2023-04-15T21:54:02.577Z,43.77
2023-04-15T21:56:30.622Z,42.33
2023-04-15T21:59:00.329Z,42.30
2023-04-15T22:01:28.543Z,51.97
2023-04-15T22:03:56.939Z,51.17
2023-04-15T22:06:25.520Z,49.37
2023-04-15T22:08:57.513Z,42.00
2023-04-15T22:11:28.173Z,42.90
2023-04-15T22:13:56.643Z,43.73
2023-04-15T22:16:25.961Z,39.87
2023-04-15T22:18:53.941Z,33.80
2023-04-15T22:21:22.176Z,36.87
2023-04-15T22:23:50.221Z,33.23
2023-04-15T22:26:18.596Z,32.40
2023-04-15T22:28:47.534Z,39.60
2023-04-15T22:31:15.917Z,33.80
2023-04-15T22:33:45.166Z,33.43
2023-04-15T22:36:16.861Z,32.40
2023-04-15T22:38:44.484Z,35.10
2023-04-15T22:41:12.159Z,34.10
2023-04-15T22:43:40.370Z,33.13
2023-04-15T22:46:08.499Z,33.10
2023-04-15T22:48:36.279Z,33.60
2023-04-15T22:51:08.420Z,34.33
2023-04-15T22:53:36.661Z,37.47
2023-04-15T22:56:04.290Z,40.03
2023-04-15T22:58:33.068Z,38.50
2023-04-15T23:01:01.233Z,34.70
2023-04-15T23:03:29.757Z,34.60
2023-04-15T23:05:58.402Z,36.93
2023-04-15T23:08:28.730Z,34.77
2023-04-15T23:10:57.021Z,36.77
2023-04-15T23:13:25.144Z,38.37
2023-04-15T23:15:53.049Z,33.20
2023-04-15T23:18:20.701Z,34.27
2023-04-15T23:20:48.873Z,34.40
2023-04-15T23:23:16.609Z,35.60
2023-04-15T23:25:45.946Z,37.20
2023-04-15T23:28:14.312Z,36.37
2023-04-15T23:30:41.977Z,33.90
2023-04-15T23:33:12.076Z,41.93
2023-04-15T23:35:43.073Z,34.43
2023-04-15T23:38:11.104Z,35.60
2023-04-15T23:40:39.369Z,35.87
2023-04-15T23:43:10.695Z,39.90
2023-04-15T23:45:38.389Z,35.77
2023-04-15T23:48:06.583Z,38.27
2023-04-15T23:50:34.313Z,36.60
2023-04-15T23:53:02.310Z,35.37
2023-04-15T23:55:30.409Z,40.57
2023-04-15T23:57:58.733Z,38.60
